sensor_id;sensor_type;location;lat;lon;timestamp;pressure;altitude;pressure_sealevel;temperature;humidity
26531;BME280;14201;43.188;24.160;2023-08-31T00:01:08;98905.56;;;22.22;79.34
26531;BME280;14201;43.188;24.160;2023-08-31T00:03:34;98909.06;;;22.24;79.40
26531;BME280;14201;43.188;24.160;2023-08-31T00:06:01;98907.38;;;22.18;79.99
26531;BME280;14201;43.188;24.160;2023-08-31T00:08:26;98912.66;;;22.20;80.24
26531;BME280;14201;43.188;24.160;2023-08-31T00:10:58;98910.88;;;22.22;80.38
26531;BME280;14201;43.188;24.160;2023-08-31T00:13:25;98912.59;;;22.26;80.37
26531;BME280;14201;43.188;24.160;2023-08-31T00:15:55;98914.28;;;22.30;79.04
26531;BME280;14201;43.188;24.160;2023-08-31T00:18:23;98908.88;;;22.35;78.15
26531;BME280;14201;43.188;24.160;2023-08-31T00:20:52;98901.84;;;22.35;78.34
26531;BME280;14201;43.188;24.160;2023-08-31T00:23:17;98907.09;;;22.37;78.39
26531;BME280;14201;43.188;24.160;2023-08-31T00:25:44;98913.38;;;22.31;78.58
26531;BME280;14201;43.188;24.160;2023-08-31T00:28:09;98912.47;;;22.32;78.72
26531;BME280;14201;43.188;24.160;2023-08-31T00:30:35;98910.81;;;22.27;79.19
26531;BME280;14201;43.188;24.160;2023-08-31T00:33:00;98916.94;;;22.32;79.01
26531;BME280;14201;43.188;24.160;2023-08-31T00:35:26;98908.97;;;22.30;79.53
26531;BME280;14201;43.188;24.160;2023-08-31T00:37:52;98911.63;;;22.32;79.00
26531;BME280;14201;43.188;24.160;2023-08-31T00:40:20;98916.94;;;22.32;78.67
26531;BME280;14201;43.188;24.160;2023-08-31T00:42:46;98919.56;;;22.32;79.12
26531;BME280;14201;43.188;24.160;2023-08-31T00:45:11;98916.00;;;22.34;78.31
26531;BME280;14201;43.188;24.160;2023-08-31T00:47:36;98910.69;;;22.34;77.99
26531;BME280;14201;43.188;24.160;2023-08-31T00:50:02;98907.06;;;22.38;78.64
26531;BME280;14201;43.188;24.160;2023-08-31T00:52:27;98907.13;;;22.35;77.82
26531;BME280;14201;43.188;24.160;2023-08-31T00:54:53;98908.06;;;22.31;78.16
26531;BME280;14201;43.188;24.160;2023-08-31T00:57:19;98917.78;;;22.32;78.27
26531;BME280;14201;43.188;24.160;2023-08-31T00:59:44;98910.72;;;22.31;78.88
26531;BME280;14201;43.188;24.160;2023-08-31T01:02:22;98912.53;;;22.29;78.24
26531;BME280;14201;43.188;24.160;2023-08-31T01:04:58;98912.59;;;22.26;77.77
26531;BME280;14201;43.188;24.160;2023-08-31T01:10:13;98919.72;;;22.21;78.10
26531;BME280;14201;43.188;24.160;2023-08-31T01:12:44;98921.59;;;22.16;78.07
26531;BME280;14201;43.188;24.160;2023-08-31T01:15:12;98918.13;;;22.11;78.19
26531;BME280;14201;43.188;24.160;2023-08-31T01:17:46;98922.81;;;21.95;78.38
26531;BME280;14201;43.188;24.160;2023-08-31T01:20:13;98921.13;;;21.88;78.47
26531;BME280;14201;43.188;24.160;2023-08-31T01:25:06;98920.28;;;21.84;78.99
26531;BME280;14201;43.188;24.160;2023-08-31T01:27:34;98920.28;;;21.84;79.81
26531;BME280;14201;43.188;24.160;2023-08-31T01:29:59;98929.19;;;21.80;79.66
26531;BME280;14201;43.188;24.160;2023-08-31T01:32:25;98925.69;;;21.78;79.38
26531;BME280;14201;43.188;24.160;2023-08-31T01:34:51;98930.13;;;21.77;79.47
26531;BME280;14201;43.188;24.160;2023-08-31T01:39:58;98927.44;;;21.79;78.93
26531;BME280;14201;43.188;24.160;2023-08-31T01:42:29;98929.22;;;21.78;79.30
26531;BME280;14201;43.188;24.160;2023-08-31T01:44:56;98926.56;;;21.78;78.95
26531;BME280;14201;43.188;24.160;2023-08-31T01:47:23;98936.31;;;21.78;79.49
26531;BME280;14201;43.188;24.160;2023-08-31T01:49:49;98931.88;;;21.77;79.62
26531;BME280;14201;43.188;24.160;2023-08-31T01:52:15;98938.03;;;21.80;79.35
26531;BME280;14201;43.188;24.160;2023-08-31T01:54:41;98944.16;;;21.84;78.40
26531;BME280;14201;43.188;24.160;2023-08-31T01:57:06;98936.28;;;21.81;78.15
26531;BME280;14201;43.188;24.160;2023-08-31T01:59:32;98937.25;;;21.74;78.59
26531;BME280;14201;43.188;24.160;2023-08-31T02:01:58;98936.34;;;21.75;78.69
26531;BME280;14201;43.188;24.160;2023-08-31T02:04:23;98938.03;;;21.79;78.87
26531;BME280;14201;43.188;24.160;2023-08-31T02:06:49;98942.56;;;21.74;79.11
26531;BME280;14201;43.188;24.160;2023-08-31T02:09:14;98948.72;;;21.73;79.06
26531;BME280;14201;43.188;24.160;2023-08-31T02:11:42;98954.94;;;21.73;78.96
26531;BME280;14201;43.188;24.160;2023-08-31T02:14:08;98946.16;;;21.70;79.33
26531;BME280;14201;43.188;24.160;2023-08-31T02:16:33;98943.50;;;21.70;79.33
26531;BME280;14201;43.188;24.160;2023-08-31T02:18:59;98942.59;;;21.69;79.14
26531;BME280;14201;43.188;24.160;2023-08-31T02:21:25;98945.19;;;21.75;79.76
26531;BME280;14201;43.188;24.160;2023-08-31T02:23:50;98945.13;;;21.77;78.79
26531;BME280;14201;43.188;24.160;2023-08-31T02:26:15;98952.22;;;21.78;78.26
26531;BME280;14201;43.188;24.160;2023-08-31T02:28:41;98944.28;;;21.76;78.47
26531;BME280;14201;43.188;24.160;2023-08-31T02:31:06;98946.16;;;21.68;79.36
26531;BME280;14201;43.188;24.160;2023-08-31T02:33:32;98947.09;;;21.66;80.04
26531;BME280;14201;43.188;24.160;2023-08-31T02:35:57;98954.09;;;21.70;78.99
26531;BME280;14201;43.188;24.160;2023-08-31T02:38:23;98963.88;;;21.65;79.45
26531;BME280;14201;43.188;24.160;2023-08-31T02:40:49;98963.03;;;21.61;79.83
26531;BME280;14201;43.188;24.160;2023-08-31T02:43:14;98976.28;;;21.61;80.60
26531;BME280;14201;43.188;24.160;2023-08-31T02:45:40;98978.94;;;21.62;78.99
26531;BME280;14201;43.188;24.160;2023-08-31T02:48:09;98970.22;;;21.54;77.85
26531;BME280;14201;43.188;24.160;2023-08-31T02:50:35;98967.53;;;21.56;79.08
26531;BME280;14201;43.188;24.160;2023-08-31T02:53:00;98984.41;;;21.50;79.42
26531;BME280;14201;43.188;24.160;2023-08-31T02:55:26;98980.91;;;21.48;79.14
26531;BME280;14201;43.188;24.160;2023-08-31T02:57:51;98991.56;;;21.40;80.10
26531;BME280;14201;43.188;24.160;2023-08-31T03:00:17;98993.34;;;21.38;80.75
26531;BME280;14201;43.188;24.160;2023-08-31T03:02:46;98978.34;;;21.37;80.13
26531;BME280;14201;43.188;24.160;2023-08-31T03:05:12;98983.63;;;21.39;80.37
26531;BME280;14201;43.188;24.160;2023-08-31T03:07:37;98988.94;;;21.37;80.96
26531;BME280;14201;43.188;24.160;2023-08-31T03:10:03;98988.13;;;21.31;81.45
26531;BME280;14201;43.188;24.160;2023-08-31T03:12:28;98982.00;;;21.27;81.69
26531;BME280;14201;43.188;24.160;2023-08-31T03:14:54;98986.38;;;21.28;82.08
26531;BME280;14201;43.188;24.160;2023-08-31T03:17:19;98999.63;;;21.30;81.89
26531;BME280;14201;43.188;24.160;2023-08-31T03:19:44;99006.78;;;21.20;83.13
26531;BME280;14201;43.188;24.160;2023-08-31T03:22:10;99011.22;;;21.19;82.62
26531;BME280;14201;43.188;24.160;2023-08-31T03:24:35;99011.25;;;21.16;82.92
26531;BME280;14201;43.188;24.160;2023-08-31T03:27:01;99010.28;;;21.22;81.88
26531;BME280;14201;43.188;24.160;2023-08-31T03:29:26;99021.84;;;21.16;82.88
26531;BME280;14201;43.188;24.160;2023-08-31T03:31:54;99018.25;;;21.20;83.41
26531;BME280;14201;43.188;24.160;2023-08-31T03:34:19;99009.44;;;21.18;83.62
26531;BME280;14201;43.188;24.160;2023-08-31T03:36:45;99014.72;;;21.21;83.55
26531;BME280;14201;43.188;24.160;2023-08-31T03:39:10;99018.25;;;21.19;83.91
26531;BME280;14201;43.188;24.160;2023-08-31T03:41:35;99022.66;;;21.23;82.54
26531;BME280;14201;43.188;24.160;2023-08-31T03:44:01;99014.66;;;21.28;81.48
26531;BME280;14201;43.188;24.160;2023-08-31T03:46:26;99018.19;;;21.27;82.10
26531;BME280;14201;43.188;24.160;2023-08-31T03:48:52;99012.00;;;21.28;82.62
26531;BME280;14201;43.188;24.160;2023-08-31T03:51:17;99014.63;;;21.31;82.65
26531;BME280;14201;43.188;24.160;2023-08-31T03:53:43;99016.47;;;21.22;82.85
26531;BME280;14201;43.188;24.160;2023-08-31T03:56:09;99021.75;;;21.26;83.26
26531;BME280;14201;43.188;24.160;2023-08-31T03:58:34;99022.59;;;21.26;82.65
26531;BME280;14201;43.188;24.160;2023-08-31T04:01:00;99028.75;;;21.30;82.40
26531;BME280;14201;43.188;24.160;2023-08-31T04:03:25;99030.56;;;21.26;82.21
26531;BME280;14201;43.188;24.160;2023-08-31T04:05:54;99026.13;;;21.28;81.68
26531;BME280;14201;43.188;24.160;2023-08-31T04:08:20;99039.50;;;21.16;81.30
26531;BME280;14201;43.188;24.160;2023-08-31T04:10:45;99037.97;;;20.92;82.55
26531;BME280;14201;43.188;24.160;2023-08-31T04:13:10;99037.16;;;20.83;82.15
26531;BME280;14201;43.188;24.160;2023-08-31T04:15:36;99033.72;;;20.75;83.49
26531;BME280;14201;43.188;24.160;2023-08-31T04:18:01;99043.44;;;20.76;83.80
26531;BME280;14201;43.188;24.160;2023-08-31T04:20:28;99042.50;;;20.80;84.34
26531;BME280;14201;43.188;24.160;2023-08-31T04:22:54;99042.44;;;20.88;82.95
26531;BME280;14201;43.188;24.160;2023-08-31T04:25:19;99045.97;;;20.85;83.76
26531;BME280;14201;43.188;24.160;2023-08-31T04:27:44;99057.47;;;20.80;83.98
26531;BME280;14201;43.188;24.160;2023-08-31T04:30:11;99061.13;;;20.68;84.82
26531;BME280;14201;43.188;24.160;2023-08-31T04:32:36;99064.69;;;20.64;85.36
26531;BME280;14201;43.188;24.160;2023-08-31T04:35:02;99073.53;;;20.63;86.34
26531;BME280;14201;43.188;24.160;2023-08-31T04:37:28;99072.50;;;20.79;86.95
26531;BME280;14201;43.188;24.160;2023-08-31T04:39:53;99079.44;;;20.93;85.90
26531;BME280;14201;43.188;24.160;2023-08-31T04:42:19;99082.03;;;21.02;85.29
26531;BME280;14201;43.188;24.160;2023-08-31T04:44:44;99090.03;;;20.94;85.80
26531;BME280;14201;43.188;24.160;2023-08-31T04:47:10;99095.44;;;20.79;86.03
26531;BME280;14201;43.188;24.160;2023-08-31T04:49:35;99100.75;;;20.76;87.32
26531;BME280;14201;43.188;24.160;2023-08-31T04:52:01;99105.13;;;20.81;86.71
26531;BME280;14201;43.188;24.160;2023-08-31T04:54:26;99105.91;;;20.96;85.43
26531;BME280;14201;43.188;24.160;2023-08-31T04:56:52;99097.78;;;21.16;84.72
26531;BME280;14201;43.188;24.160;2023-08-31T04:59:17;99105.66;;;21.20;84.15
26531;BME280;14201;43.188;24.160;2023-08-31T05:01:43;99109.09;;;21.32;83.26
26531;BME280;14201;43.188;24.160;2023-08-31T05:04:08;99116.16;;;21.31;83.52
26531;BME280;14201;43.188;24.160;2023-08-31T05:06:34;99113.41;;;21.42;81.98
26531;BME280;14201;43.188;24.160;2023-08-31T05:08:59;99116.97;;;21.41;82.20
26531;BME280;14201;43.188;24.160;2023-08-31T05:11:25;99117.84;;;21.45;81.10
26531;BME280;14201;43.188;24.160;2023-08-31T05:13:51;99118.69;;;21.42;82.27
26531;BME280;14201;43.188;24.160;2023-08-31T05:16:16;99113.25;;;21.60;82.54
26531;BME280;14201;43.188;24.160;2023-08-31T05:18:41;99116.59;;;21.78;82.95
26531;BME280;14201;43.188;24.160;2023-08-31T05:21:07;99129.56;;;22.01;81.69
26531;BME280;14201;43.188;24.160;2023-08-31T05:23:33;99133.59;;;22.31;80.82
26531;BME280;14201;43.188;24.160;2023-08-31T05:25:58;99127.09;;;22.54;77.99
26531;BME280;14201;43.188;24.160;2023-08-31T05:28:24;99133.91;;;22.72;75.98
26531;BME280;14201;43.188;24.160;2023-08-31T05:30:50;99135.56;;;22.80;75.79
26531;BME280;14201;43.188;24.160;2023-08-31T05:33:19;99137.06;;;22.97;75.43
26531;BME280;14201;43.188;24.160;2023-08-31T05:35:44;99130.69;;;23.09;74.23
26531;BME280;14201;43.188;24.160;2023-08-31T05:38:10;99126.06;;;23.22;75.93
26531;BME280;14201;43.188;24.160;2023-08-31T05:40:35;99134.50;;;23.45;71.73
26531;BME280;14201;43.188;24.160;2023-08-31T05:43:01;99136.81;;;23.65;71.77
26531;BME280;14201;43.188;24.160;2023-08-31T05:45:28;99139.69;;;24.00;72.37
26531;BME280;14201;43.188;24.160;2023-08-31T05:47:53;99140.31;;;24.12;71.70
26531;BME280;14201;43.188;24.160;2023-08-31T05:50:18;99146.81;;;24.40;69.64
26531;BME280;14201;43.188;24.160;2023-08-31T05:52:44;99154.00;;;24.76;68.86
26531;BME280;14201;43.188;24.160;2023-08-31T05:55:09;99150.19;;;24.87;66.81
26531;BME280;14201;43.188;24.160;2023-08-31T05:57:35;99159.78;;;24.95;66.60
26531;BME280;14201;43.188;24.160;2023-08-31T06:00:01;99150.63;;;25.06;65.03
26531;BME280;14201;43.188;24.160;2023-08-31T06:02:26;99155.66;;;25.18;67.43
26531;BME280;14201;43.188;24.160;2023-08-31T06:04:51;99148.13;;;25.35;65.57
26531;BME280;14201;43.188;24.160;2023-08-31T06:07:17;99161.25;;;25.43;66.01
26531;BME280;14201;43.188;24.160;2023-08-31T06:09:42;99156.88;;;25.75;64.55
26531;BME280;14201;43.188;24.160;2023-08-31T06:12:08;99160.69;;;25.98;63.85
26531;BME280;14201;43.188;24.160;2023-08-31T06:14:33;99167.19;;;26.20;61.66
26531;BME280;14201;43.188;24.160;2023-08-31T06:16:59;99165.97;;;26.30;60.97
26531;BME280;14201;43.188;24.160;2023-08-31T06:19:24;99165.69;;;26.41;61.88
26531;BME280;14201;43.188;24.160;2023-08-31T06:21:49;99157.81;;;26.66;59.21
26531;BME280;14201;43.188;24.160;2023-08-31T06:24:15;99160.72;;;26.87;58.55
26531;BME280;14201;43.188;24.160;2023-08-31T06:26:41;99163.63;;;27.07;56.58
26531;BME280;14201;43.188;24.160;2023-08-31T06:29:06;99160.13;;;27.34;55.67
26531;BME280;14201;43.188;24.160;2023-08-31T06:31:33;99164.00;;;27.50;54.59
26531;BME280;14201;43.188;24.160;2023-08-31T06:33:58;99158.06;;;27.67;51.05
26531;BME280;14201;43.188;24.160;2023-08-31T06:36:24;99163.03;;;27.78;48.19
26531;BME280;14201;43.188;24.160;2023-08-31T06:38:49;99168.75;;;27.94;48.23
26531;BME280;14201;43.188;24.160;2023-08-31T06:41:14;99175.34;;;28.32;47.69
26531;BME280;14201;43.188;24.160;2023-08-31T06:43:40;99177.81;;;28.38;45.48
26531;BME280;14201;43.188;24.160;2023-08-31T06:46:06;99184.75;;;28.67;45.90
26531;BME280;14201;43.188;24.160;2023-08-31T06:48:31;99181.56;;;28.80;46.96
26531;BME280;14201;43.188;24.160;2023-08-31T06:50:57;99178.00;;;29.01;44.77
26531;BME280;14201;43.188;24.160;2023-08-31T06:53:22;99193.09;;;28.82;43.74
26531;BME280;14201;43.188;24.160;2023-08-31T06:55:47;99187.72;;;29.04;44.65
26531;BME280;14201;43.188;24.160;2023-08-31T06:58:13;99189.66;;;29.44;44.29
26531;BME280;14201;43.188;24.160;2023-08-31T07:00:38;99203.91;;;29.67;42.67
26531;BME280;14201;43.188;24.160;2023-08-31T07:03:04;99205.34;;;29.96;40.95
26531;BME280;14201;43.188;24.160;2023-08-31T07:05:33;99203.13;;;30.27;44.10
26531;BME280;14201;43.188;24.160;2023-08-31T07:08:00;99206.72;;;30.46;42.08
26531;BME280;14201;43.188;24.160;2023-08-31T07:10:26;99211.88;;;30.70;41.81
26531;BME280;14201;43.188;24.160;2023-08-31T07:12:52;99209.59;;;31.00;41.51
26531;BME280;14201;43.188;24.160;2023-08-31T07:15:17;99221.88;;;31.23;39.38
26531;BME280;14201;43.188;24.160;2023-08-31T07:17:43;99213.59;;;31.47;40.89
26531;BME280;14201;43.188;24.160;2023-08-31T07:20:09;99209.78;;;31.68;41.29
26531;BME280;14201;43.188;24.160;2023-08-31T07:22:35;99213.59;;;31.82;40.70
26531;BME280;14201;43.188;24.160;2023-08-31T07:25:01;99215.00;;;31.89;41.15
26531;BME280;14201;43.188;24.160;2023-08-31T07:27:28;99218.19;;;31.97;39.03
26531;BME280;14201;43.188;24.160;2023-08-31T07:29:54;99224.13;;;32.04;39.78
26531;BME280;14201;43.188;24.160;2023-08-31T07:32:20;99216.28;;;32.16;37.75
26531;BME280;14201;43.188;24.160;2023-08-31T07:34:45;99225.59;;;32.27;39.90
26531;BME280;14201;43.188;24.160;2023-08-31T07:37:11;99232.22;;;32.37;39.31
26531;BME280;14201;43.188;24.160;2023-08-31T07:39:37;99224.94;;;32.39;38.02
26531;BME280;14201;43.188;24.160;2023-08-31T07:42:02;99231.38;;;32.36;37.78
26531;BME280;14201;43.188;24.160;2023-08-31T07:44:28;99228.94;;;32.32;37.39
26531;BME280;14201;43.188;24.160;2023-08-31T07:46:53;99224.75;;;32.26;37.45
26531;BME280;14201;43.188;24.160;2023-08-31T07:49:18;99226.97;;;32.51;39.35
26531;BME280;14201;43.188;24.160;2023-08-31T07:51:44;99216.28;;;32.16;36.46
26531;BME280;14201;43.188;24.160;2023-08-31T07:54:09;99221.47;;;32.20;36.38
26531;BME280;14201;43.188;24.160;2023-08-31T07:56:35;99226.72;;;32.23;37.14
26531;BME280;14201;43.188;24.160;2023-08-31T07:59:00;99227.13;;;32.48;36.62
26531;BME280;14201;43.188;24.160;2023-08-31T08:01:26;99227.41;;;32.44;35.67
26531;BME280;14201;43.188;24.160;2023-08-31T08:03:52;99229.03;;;32.13;36.30
26531;BME280;14201;43.188;24.160;2023-08-31T08:06:17;99234.44;;;32.13;37.66
26531;BME280;14201;43.188;24.160;2023-08-31T08:08:43;99229.88;;;32.31;36.82
26531;BME280;14201;43.188;24.160;2023-08-31T08:11:08;99233.00;;;32.56;35.96
26531;BME280;14201;43.188;24.160;2023-08-31T08:13:34;99238.44;;;32.88;37.11
26531;BME280;14201;43.188;24.160;2023-08-31T08:15:59;99234.81;;;33.21;36.24
26531;BME280;14201;43.188;24.160;2023-08-31T08:18:25;99238.22;;;33.55;34.81
26531;BME280;14201;43.188;24.160;2023-08-31T08:20:50;99240.66;;;33.76;34.46
26531;BME280;14201;43.188;24.160;2023-08-31T08:23:16;99234.72;;;33.99;33.15
26531;BME280;14201;43.188;24.160;2023-08-31T08:25:41;99234.94;;;34.10;34.57
26531;BME280;14201;43.188;24.160;2023-08-31T08:28:06;99226.56;;;34.29;32.78
26531;BME280;14201;43.188;24.160;2023-08-31T08:30:32;99231.69;;;34.34;32.03
26531;BME280;14201;43.188;24.160;2023-08-31T08:32:57;99232.38;;;34.38;34.32
26531;BME280;14201;43.188;24.160;2023-08-31T08:35:24;99232.66;;;34.19;31.87
26531;BME280;14201;43.188;24.160;2023-08-31T08:37:49;99233.00;;;34.12;31.29
26531;BME280;14201;43.188;24.160;2023-08-31T08:40:15;99230.94;;;34.02;32.27
26531;BME280;14201;43.188;24.160;2023-08-31T08:42:41;99231.03;;;33.86;32.81
26531;BME280;14201;43.188;24.160;2023-08-31T08:45:12;99230.84;;;33.89;31.99
26531;BME280;14201;43.188;24.160;2023-08-31T08:47:40;99235.91;;;33.79;32.57
26531;BME280;14201;43.188;24.160;2023-08-31T08:50:06;99220.09;;;33.57;33.19
26531;BME280;14201;43.188;24.160;2023-08-31T08:52:31;99230.34;;;33.82;33.39
26531;BME280;14201;43.188;24.160;2023-08-31T08:54:57;99216.47;;;34.03;32.59
26531;BME280;14201;43.188;24.160;2023-08-31T08:57:22;99220.19;;;34.30;32.73
26531;BME280;14201;43.188;24.160;2023-08-31T08:59:48;99227.44;;;34.44;31.15
26531;BME280;14201;43.188;24.160;2023-08-31T09:02:13;99221.25;;;34.42;29.83
26531;BME280;14201;43.188;24.160;2023-08-31T09:04:39;99223.19;;;34.55;30.31
26531;BME280;14201;43.188;24.160;2023-08-31T09:07:04;99222.44;;;34.67;30.82
26531;BME280;14201;43.188;24.160;2023-08-31T09:09:30;99230.13;;;34.87;33.37
26531;BME280;14201;43.188;24.160;2023-08-31T09:11:55;99228.28;;;35.02;31.19
26531;BME280;14201;43.188;24.160;2023-08-31T09:14:21;99238.56;;;35.24;31.10
26531;BME280;14201;43.188;24.160;2023-08-31T09:16:48;99233.16;;;35.52;31.99
26531;BME280;14201;43.188;24.160;2023-08-31T09:19:19;99234.13;;;35.78;31.38
26531;BME280;14201;43.188;24.160;2023-08-31T09:21:45;99223.41;;;36.02;31.24
26531;BME280;14201;43.188;24.160;2023-08-31T09:24:12;99230.19;;;36.22;29.97
26531;BME280;14201;43.188;24.160;2023-08-31T09:26:52;99226.75;;;35.80;28.27
26531;BME280;14201;43.188;24.160;2023-08-31T09:29:18;99229.06;;;35.59;28.25
26531;BME280;14201;43.188;24.160;2023-08-31T09:31:45;99219.47;;;35.67;29.73
26531;BME280;14201;43.188;24.160;2023-08-31T09:34:12;99227.94;;;35.48;29.96
26531;BME280;14201;43.188;24.160;2023-08-31T09:36:38;99211.03;;;35.45;29.37
26531;BME280;14201;43.188;24.160;2023-08-31T09:39:05;99208.47;;;34.59;29.07
26531;BME280;14201;43.188;24.160;2023-08-31T09:41:31;99201.97;;;32.81;31.73
26531;BME280;14201;43.188;24.160;2023-08-31T09:43:59;99194.97;;;32.28;32.52
26531;BME280;14201;43.188;24.160;2023-08-31T09:46:39;99201.25;;;32.78;33.17
26531;BME280;14201;43.188;24.160;2023-08-31T09:49:05;99198.22;;;32.68;31.90
26531;BME280;14201;43.188;24.160;2023-08-31T09:51:31;99195.28;;;32.55;33.50
26531;BME280;14201;43.188;24.160;2023-08-31T09:53:58;99186.63;;;31.99;33.44
26531;BME280;14201;43.188;24.160;2023-08-31T09:56:25;99192.16;;;31.96;33.47
26531;BME280;14201;43.188;24.160;2023-08-31T09:58:53;99207.00;;;32.05;34.16
26531;BME280;14201;43.188;24.160;2023-08-31T10:01:18;99200.59;;;32.41;33.03
26531;BME280;14201;43.188;24.160;2023-08-31T10:03:44;99206.84;;;32.08;33.25
26531;BME280;14201;43.188;24.160;2023-08-31T10:06:10;99205.63;;;32.47;34.08
26531;BME280;14201;43.188;24.160;2023-08-31T10:08:35;99206.22;;;33.01;32.17
26531;BME280;14201;43.188;24.160;2023-08-31T10:11:01;99211.09;;;32.94;33.54
26531;BME280;14201;43.188;24.160;2023-08-31T10:13:29;99210.16;;;33.27;31.63
26531;BME280;14201;43.188;24.160;2023-08-31T10:15:57;99202.72;;;33.47;32.18
26531;BME280;14201;43.188;24.160;2023-08-31T10:18:22;99212.56;;;33.78;31.16
26531;BME280;14201;43.188;24.160;2023-08-31T10:20:49;99209.72;;;33.96;30.46
26531;BME280;14201;43.188;24.160;2023-08-31T10:23:14;99205.06;;;33.98;30.47
26531;BME280;14201;43.188;24.160;2023-08-31T10:28:18;99198.28;;;33.76;31.65
26531;BME280;14201;43.188;24.160;2023-08-31T10:30:59;99210.41;;;33.39;30.51
26531;BME280;14201;43.188;24.160;2023-08-31T10:33:26;99205.41;;;33.77;31.02
26531;BME280;14201;43.188;24.160;2023-08-31T10:35:55;99201.38;;;33.84;31.41
26531;BME280;14201;43.188;24.160;2023-08-31T10:38:30;99203.66;;;34.06;32.33
26531;BME280;14201;43.188;24.160;2023-08-31T10:51:39;99204.56;;;36.00;30.69
26531;BME280;14201;43.188;24.160;2023-08-31T10:54:09;99207.41;;;36.37;29.58
26531;BME280;14201;43.188;24.160;2023-08-31T10:59:25;99205.78;;;36.97;28.02
26531;BME280;14201;43.188;24.160;2023-08-31T11:01:58;99202.09;;;36.85;27.19
26531;BME280;14201;43.188;24.160;2023-08-31T11:04:26;99202.06;;;36.98;26.49
26531;BME280;14201;43.188;24.160;2023-08-31T11:09:36;99199.09;;;36.77;26.10
26531;BME280;14201;43.188;24.160;2023-08-31T11:12:02;99193.72;;;36.00;28.00
26531;BME280;14201;43.188;24.160;2023-08-31T11:14:27;99203.13;;;35.00;27.59
26531;BME280;14201;43.188;24.160;2023-08-31T11:16:52;99196.00;;;35.26;27.75
26531;BME280;14201;43.188;24.160;2023-08-31T11:19:18;99199.81;;;35.09;29.55
26531;BME280;14201;43.188;24.160;2023-08-31T11:21:45;99195.47;;;35.07;29.35
26531;BME280;14201;43.188;24.160;2023-08-31T11:24:10;99190.28;;;35.04;29.62
26531;BME280;14201;43.188;24.160;2023-08-31T11:26:36;99195.72;;;35.31;30.24
26531;BME280;14201;43.188;24.160;2023-08-31T11:29:05;99192.53;;;35.64;28.74
26531;BME280;14201;43.188;24.160;2023-08-31T11:31:30;99194.19;;;34.57;28.69
26531;BME280;14201;43.188;24.160;2023-08-31T11:33:56;99191.91;;;35.06;29.01
26531;BME280;14201;43.188;24.160;2023-08-31T11:36:22;99184.19;;;35.00;29.25
26531;BME280;14201;43.188;24.160;2023-08-31T11:38:48;99182.72;;;34.67;29.61
26531;BME280;14201;43.188;24.160;2023-08-31T11:41:14;99184.50;;;34.96;30.53
26531;BME280;14201;43.188;24.160;2023-08-31T11:43:40;99188.38;;;35.19;29.40
26531;BME280;14201;43.188;24.160;2023-08-31T11:46:06;99186.06;;;34.13;29.42
26531;BME280;14201;43.188;24.160;2023-08-31T11:48:33;99183.41;;;33.69;30.36
26531;BME280;14201;43.188;24.160;2023-08-31T11:50:59;99183.59;;;32.72;32.08
26531;BME280;14201;43.188;24.160;2023-08-31T11:53:25;99166.84;;;32.49;32.18
26531;BME280;14201;43.188;24.160;2023-08-31T11:55:51;99167.06;;;32.62;32.09
26531;BME280;14201;43.188;24.160;2023-08-31T11:58:18;99174.56;;;32.73;31.89
26531;BME280;14201;43.188;24.160;2023-08-31T12:00:44;99180.34;;;32.49;32.18
26531;BME280;14201;43.188;24.160;2023-08-31T12:03:13;99171.16;;;32.69;32.21
26531;BME280;14201;43.188;24.160;2023-08-31T12:05:45;99185.06;;;32.93;33.35
26531;BME280;14201;43.188;24.160;2023-08-31T12:08:10;99182.38;;;33.25;32.49
26531;BME280;14201;43.188;24.160;2023-08-31T12:10:39;99182.34;;;33.41;33.03
26531;BME280;14201;43.188;24.160;2023-08-31T12:13:08;99178.22;;;33.80;33.10
26531;BME280;14201;43.188;24.160;2023-08-31T12:15:34;99188.72;;;34.15;32.00
26531;BME280;14201;43.188;24.160;2023-08-31T12:18:06;99188.72;;;34.44;32.13
26531;BME280;14201;43.188;24.160;2023-08-31T12:20:31;99187.19;;;34.68;30.82
26531;BME280;14201;43.188;24.160;2023-08-31T12:22:58;99178.06;;;34.55;29.67
26531;BME280;14201;43.188;24.160;2023-08-31T12:25:23;99178.94;;;34.41;30.42
26531;BME280;14201;43.188;24.160;2023-08-31T12:27:48;99182.44;;;34.43;31.01
26531;BME280;14201;43.188;24.160;2023-08-31T12:30:15;99174.97;;;34.47;29.94
26531;BME280;14201;43.188;24.160;2023-08-31T12:32:40;99173.94;;;34.49;30.37
26531;BME280;14201;43.188;24.160;2023-08-31T12:35:06;99165.94;;;34.34;30.43
26531;BME280;14201;43.188;24.160;2023-08-31T12:37:32;99179.94;;;33.51;30.97
26531;BME280;14201;43.188;24.160;2023-08-31T12:39:58;99168.00;;;33.55;30.96
26531;BME280;14201;43.188;24.160;2023-08-31T12:42:23;99177.78;;;33.42;30.83
26531;BME280;14201;43.188;24.160;2023-08-31T12:44:49;99176.47;;;33.49;31.62
26531;BME280;14201;43.188;24.160;2023-08-31T12:47:14;99177.56;;;33.30;32.12
26531;BME280;14201;43.188;24.160;2023-08-31T12:49:40;99181.47;;;33.41;31.80
26531;BME280;14201;43.188;24.160;2023-08-31T12:52:05;99167.50;;;33.48;30.88
26531;BME280;14201;43.188;24.160;2023-08-31T12:54:30;99172.00;;;33.48;31.25
26531;BME280;14201;43.188;24.160;2023-08-31T12:56:56;99169.69;;;33.42;31.35
26531;BME280;14201;43.188;24.160;2023-08-31T12:59:22;99169.44;;;33.30;30.73
26531;BME280;14201;43.188;24.160;2023-08-31T13:01:47;99179.94;;;33.21;31.37
26531;BME280;14201;43.188;24.160;2023-08-31T13:04:12;99176.78;;;33.28;32.62
26531;BME280;14201;43.188;24.160;2023-08-31T13:06:39;99174.91;;;33.45;32.87
26531;BME280;14201;43.188;24.160;2023-08-31T13:09:05;99169.53;;;33.59;32.60
26531;BME280;14201;43.188;24.160;2023-08-31T13:11:33;99166.50;;;33.65;31.71